Solway, Minnesota
Current Conditions -  °F | °C
As of 11:52 PM on Friday 19 Dec 2014 (Local Time) from KBJI Reporting Station
Light Snow Light Snow  
Wind Chill: 20°   Ceiling: 400
Heat Index: 26°   Visibility: 2mi
Dew Point: 25°   Wind: 5mph
Humidity: 97%   Direction: 140°SE
Pressure: 30.02"   Gusts: NA
Location:  47.52°N, 95.13°W
Report Text: KBJI 200552Z AUTO 14004KT 2SM -SN OVC004 M04/M04 A3002 RMK AO2 T10361040
Loading
Personal Weather Stations






























Interactive Weather Map New forecast layout! Learn more

10-Day Weather Forecast

Advertisements
Track Severe Weather on mobile